createdAt,value
2023-01-19T00:00:57.127Z,51.212185
2023-01-19T00:01:57.107Z,51.212147
2023-01-19T00:02:57.076Z,51.212143
2023-01-19T00:03:57.087Z,51.212185
2023-01-19T00:04:57.051Z,51.212151
2023-01-19T00:05:57.114Z,51.211967
2023-01-19T00:06:57.050Z,51.212078
2023-01-19T00:07:57.111Z,51.212170
2023-01-19T00:08:57.037Z,51.211983
2023-01-19T00:09:57.030Z,51.212086
2023-01-19T00:10:57.020Z,51.211994
2023-01-19T00:11:57.027Z,51.212082
2023-01-19T00:12:57.028Z,51.212166
2023-01-19T00:13:57.002Z,51.212143
2023-01-19T00:14:56.998Z,51.212132
2023-01-19T00:15:57.000Z,51.212162
2023-01-19T00:16:57.000Z,51.212154
2023-01-19T00:17:56.979Z,51.212036
2023-01-19T00:18:57.087Z,51.212162
2023-01-19T00:19:56.970Z,51.212219
2023-01-19T00:20:56.957Z,51.212154
2023-01-19T00:21:57.964Z,51.212101
2023-01-19T00:22:57.256Z,51.212116
2023-01-19T00:23:56.998Z,51.212223
2023-01-19T00:24:56.963Z,51.212124
2023-01-19T00:25:56.920Z,51.212109
2023-01-19T00:26:56.914Z,51.212128
2023-01-19T00:27:57.157Z,51.212139
2023-01-19T00:28:57.929Z,51.212208
2023-01-19T00:29:56.917Z,51.212090
2023-01-19T00:30:56.909Z,51.212055
2023-01-19T00:31:56.894Z,51.212059
2023-01-19T00:32:57.018Z,51.211998
2023-01-19T00:33:57.896Z,51.211971
2023-01-19T00:34:56.893Z,51.212017
2023-01-19T00:35:56.922Z,51.212158
2023-01-19T00:36:56.892Z,51.212177
2023-01-19T00:37:56.863Z,51.212166
2023-01-19T00:38:56.874Z,51.212189
2023-01-19T00:39:56.841Z,51.212177
2023-01-19T00:40:56.840Z,51.212189
2023-01-19T00:41:56.837Z,51.212208
2023-01-19T00:42:56.836Z,51.212196
2023-01-19T00:43:56.831Z,51.212234
2023-01-19T00:44:56.831Z,51.212177
2023-01-19T00:45:56.884Z,51.212135
2023-01-19T00:46:56.802Z,51.212120
2023-01-19T00:47:56.811Z,51.212009
2023-01-19T00:48:56.792Z,51.212044
2023-01-19T00:49:56.792Z,51.212105
2023-01-19T00:50:56.810Z,51.212112
2023-01-19T00:51:56.772Z,51.212132
2023-01-19T00:52:56.766Z,51.212109
2023-01-19T00:53:56.780Z,51.212082
2023-01-19T00:54:56.758Z,51.212086
2023-01-19T00:55:56.768Z,51.212139
2023-01-19T00:56:56.773Z,51.212196
2023-01-19T00:57:56.746Z,51.212196
2023-01-19T00:58:56.728Z,51.212223
2023-01-19T00:59:56.728Z,51.212246
2023-01-19T01:00:56.855Z,51.212250
2023-01-19T01:01:56.909Z,51.212177
2023-01-19T01:02:56.758Z,51.212200
2023-01-19T01:03:56.704Z,51.212238
2023-01-19T01:04:57.700Z,51.212208
2023-01-19T01:05:56.713Z,51.212204
2023-01-19T01:06:56.704Z,51.212132
2023-01-19T01:07:56.709Z,51.212158
2023-01-19T01:08:56.688Z,51.212208
2023-01-19T01:09:56.702Z,51.212151
2023-01-19T01:10:56.661Z,51.212227
2023-01-19T01:11:56.691Z,51.212147
2023-01-19T01:12:58.959Z,51.212109
2023-01-19T01:13:56.664Z,51.212048
2023-01-19T01:14:56.665Z,51.212284
2023-01-19T01:15:56.632Z,51.212265
2023-01-19T01:16:56.633Z,51.212025
2023-01-19T01:17:56.681Z,51.211815
2023-01-19T01:18:56.622Z,51.211887
2023-01-19T01:19:56.617Z,51.211998
2023-01-19T01:20:56.633Z,51.212070
2023-01-19T01:21:56.626Z,51.212124
2023-01-19T01:22:56.660Z,51.211975
2023-01-19T01:23:56.624Z,51.211941
2023-01-19T01:24:56.592Z,51.212021
2023-01-19T01:25:56.586Z,51.212116
2023-01-19T01:26:56.596Z,51.211956
2023-01-19T01:27:56.593Z,51.211933
2023-01-19T01:28:56.574Z,51.211922
2023-01-19T01:29:56.597Z,51.211967
2023-01-19T01:30:56.561Z,51.212139
2023-01-19T01:31:56.572Z,51.212059
2023-01-19T01:32:56.537Z,51.211994
2023-01-19T01:33:56.532Z,51.212013
2023-01-19T01:34:56.525Z,51.211971
2023-01-19T01:35:56.566Z,51.211964
2023-01-19T01:36:56.508Z,51.211979
2023-01-19T01:37:56.513Z,51.212040
2023-01-19T01:38:56.527Z,51.211796
2023-01-19T01:39:56.488Z,51.211815
2023-01-19T01:40:56.488Z,51.211899
2023-01-19T01:41:57.570Z,51.211899
2023-01-19T01:42:56.459Z,51.211842
2023-01-19T01:43:56.472Z,51.211868
2023-01-19T01:44:56.476Z,51.211914
2023-01-19T01:45:56.479Z,51.211998
2023-01-19T01:46:56.483Z,51.212173
2023-01-19T01:47:56.479Z,51.212086
2023-01-19T01:48:56.475Z,51.212048
2023-01-19T01:49:56.447Z,51.212044
2023-01-19T01:50:56.461Z,51.212002
2023-01-19T01:51:56.444Z,51.212029
2023-01-19T01:53:06.319Z,51.212032
2023-01-19T01:53:57.438Z,51.212029
2023-01-19T01:54:56.402Z,51.211960
2023-01-19T01:55:57.028Z,51.211952
2023-01-19T01:56:56.439Z,51.212093
2023-01-19T01:57:56.634Z,51.211960
2023-01-19T01:58:56.533Z,51.212032
2023-01-19T01:59:56.445Z,51.211922
2023-01-19T02:00:56.596Z,51.212112
2023-01-19T02:01:56.517Z,51.211926
2023-01-19T02:02:56.523Z,51.212139
2023-01-19T02:03:56.525Z,51.212177
2023-01-19T02:04:56.488Z,51.212212
2023-01-19T02:05:56.517Z,51.212151
2023-01-19T02:06:56.404Z,51.212158
2023-01-19T02:07:56.417Z,51.212040
2023-01-19T02:08:56.430Z,51.212070
2023-01-19T02:09:56.324Z,51.212017
2023-01-19T02:10:56.329Z,51.212200
2023-01-19T02:11:56.304Z,51.212154
2023-01-19T02:12:56.316Z,51.212002
2023-01-19T02:13:56.289Z,51.211933
2023-01-19T02:14:56.271Z,51.212078
2023-01-19T02:15:56.276Z,51.212097
2023-01-19T02:16:57.263Z,51.212040
2023-01-19T02:17:56.267Z,51.212238
2023-01-19T02:18:56.244Z,51.212219
2023-01-19T02:19:56.267Z,51.212215
2023-01-19T02:20:56.236Z,51.212231
2023-01-19T02:21:56.231Z,51.212238
2023-01-19T02:22:56.247Z,51.212101
2023-01-19T02:23:56.218Z,51.212250
2023-01-19T02:24:56.203Z,51.212269
2023-01-19T02:25:56.225Z,51.212357
2023-01-19T02:26:56.200Z,51.212219
2023-01-19T02:27:56.204Z,51.212276
2023-01-19T02:28:56.194Z,51.212193
2023-01-19T02:29:56.176Z,51.212250
2023-01-19T02:30:56.213Z,51.212269
2023-01-19T02:31:56.190Z,51.212250
2023-01-19T02:32:56.190Z,51.212261
2023-01-19T02:33:56.144Z,51.212154
2023-01-19T02:34:56.168Z,51.212250
2023-01-19T02:35:56.156Z,51.212242
2023-01-19T02:36:56.146Z,51.212223
2023-01-19T02:37:56.125Z,51.212212
2023-01-19T02:38:56.236Z,51.212273
2023-01-19T02:39:56.117Z,51.212200
2023-01-19T02:40:56.115Z,51.212128
2023-01-19T02:41:56.164Z,51.212116
2023-01-19T02:42:56.098Z,51.212200
2023-01-19T02:43:56.105Z,51.212074
2023-01-19T02:44:56.091Z,51.212109
2023-01-19T02:45:56.118Z,51.212208
2023-01-19T02:46:56.078Z,51.212158
2023-01-19T02:47:56.078Z,51.212135
2023-01-19T02:48:56.094Z,51.212185
2023-01-19T02:49:56.062Z,51.212135
2023-01-19T02:50:56.076Z,51.212120
2023-01-19T02:51:56.055Z,51.212166
2023-01-19T02:52:56.041Z,51.212112
2023-01-19T02:53:56.030Z,51.212082
2023-01-19T02:54:56.050Z,51.212078
2023-01-19T02:55:56.030Z,51.212139
2023-01-19T02:56:56.020Z,51.212200
2023-01-19T02:57:56.004Z,51.212238
2023-01-19T02:58:56.027Z,51.212318
2023-01-19T02:59:56.011Z,51.212055
2023-01-19T03:00:56.062Z,51.212055
2023-01-19T03:01:56.099Z,51.211933
2023-01-19T03:02:55.987Z,51.212029
2023-01-19T03:03:55.982Z,51.212101
2023-01-19T03:04:55.970Z,51.212093
2023-01-19T03:05:55.980Z,51.212093
2023-01-19T03:06:55.958Z,51.212132
2023-01-19T03:07:55.943Z,51.212196
2023-01-19T03:08:55.947Z,51.212128
2023-01-19T03:09:55.944Z,51.212128
2023-01-19T03:10:55.951Z,51.212044
2023-01-19T03:11:55.921Z,51.212097
2023-01-19T03:12:55.937Z,51.212063
2023-01-19T03:13:55.907Z,51.212032
2023-01-19T03:14:55.906Z,51.211987
2023-01-19T03:15:55.973Z,51.212059
2023-01-19T03:16:55.963Z,51.211990
2023-01-19T03:17:55.885Z,51.211983
2023-01-19T03:18:55.907Z,51.212021
2023-01-19T03:19:55.862Z,51.212009
2023-01-19T03:20:55.887Z,51.212116
2023-01-19T03:21:55.870Z,51.212078
2023-01-19T03:22:55.862Z,51.211994
2023-01-19T03:23:55.850Z,51.212112
2023-01-19T03:24:55.851Z,51.212170
2023-01-19T03:25:55.853Z,51.212177
2023-01-19T03:26:55.848Z,51.212219
2023-01-19T03:27:55.833Z,51.212135
2023-01-19T03:28:55.812Z,51.212231
2023-01-19T03:29:55.817Z,51.212238
2023-01-19T03:30:55.830Z,51.212185
2023-01-19T03:31:55.820Z,51.212109
2023-01-19T03:32:55.812Z,51.212132
2023-01-19T03:33:55.797Z,51.212044
2023-01-19T03:34:55.795Z,51.212208
2023-01-19T03:35:55.777Z,51.212181
2023-01-19T03:36:55.775Z,51.212162
2023-01-19T03:37:55.802Z,51.212284
2023-01-19T03:38:55.774Z,51.212158
2023-01-19T03:39:55.754Z,51.212166
2023-01-19T03:40:55.762Z,51.212189
2023-01-19T03:41:55.754Z,51.212112
2023-01-19T03:42:55.752Z,51.212193
2023-01-19T03:43:55.765Z,51.212193
2023-01-19T03:44:55.716Z,51.212193
2023-01-19T03:45:55.750Z,51.212193
2023-01-19T03:46:55.774Z,51.212181
2023-01-19T03:47:55.710Z,51.212109
2023-01-19T03:48:55.687Z,51.212082
2023-01-19T03:49:55.694Z,51.212109
2023-01-19T03:50:55.671Z,51.212135
2023-01-19T03:51:55.682Z,51.212196
2023-01-19T03:52:55.692Z,51.212048
2023-01-19T03:53:55.667Z,51.212097
2023-01-19T03:54:55.656Z,51.212162
2023-01-19T03:55:55.663Z,51.212112
2023-01-19T03:56:55.653Z,51.212124
2023-01-19T03:57:55.658Z,51.212051
2023-01-19T03:58:56.985Z,51.212124
2023-01-19T03:59:56.621Z,51.211906
2023-01-19T04:00:55.695Z,51.211823
2023-01-19T04:01:55.686Z,51.211807
2023-01-19T04:02:55.648Z,51.211609
2023-01-19T04:03:55.596Z,51.211815
2023-01-19T04:04:55.613Z,51.211948
2023-01-19T04:05:55.589Z,51.212177
2023-01-19T04:06:55.579Z,51.212223
2023-01-19T04:07:55.639Z,51.212158
2023-01-19T04:08:55.573Z,51.212063
2023-01-19T04:09:55.555Z,51.211987
2023-01-19T04:10:55.563Z,51.212143
2023-01-19T04:11:55.550Z,51.212200
2023-01-19T04:12:55.546Z,51.212257
2023-01-19T04:13:55.559Z,51.212250
2023-01-19T04:14:55.529Z,51.212128
2023-01-19T04:15:55.552Z,51.212097
2023-01-19T04:16:55.569Z,51.212120
2023-01-19T04:17:55.528Z,51.212109
2023-01-19T04:18:55.501Z,51.212105
2023-01-19T04:19:55.506Z,51.212067
2023-01-19T04:20:55.489Z,51.212109
2023-01-19T04:21:55.490Z,51.212135
2023-01-19T04:22:55.505Z,51.212132
2023-01-19T04:23:55.469Z,51.211987
2023-01-19T04:24:55.466Z,51.212093
2023-01-19T04:25:55.481Z,51.212086
2023-01-19T04:26:55.456Z,51.212055
2023-01-19T04:27:55.485Z,51.212116
2023-01-19T04:28:55.452Z,51.212185
2023-01-19T04:29:55.433Z,51.212101
2023-01-19T04:30:55.484Z,51.212128
2023-01-19T04:31:55.445Z,51.212036
2023-01-19T04:32:55.449Z,51.212055
2023-01-19T04:33:55.419Z,51.212151
2023-01-19T04:34:55.442Z,51.212063
2023-01-19T04:35:55.434Z,51.212093
2023-01-19T04:36:55.406Z,51.212193
2023-01-19T04:37:55.426Z,51.212162
2023-01-19T04:38:55.404Z,51.212090
2023-01-19T04:39:55.404Z,51.212090
2023-01-19T04:40:55.389Z,51.212063
2023-01-19T04:41:55.386Z,51.211964
2023-01-19T04:42:55.376Z,51.211849
2023-01-19T04:43:55.353Z,51.211964
2023-01-19T04:44:55.356Z,51.212139
2023-01-19T04:45:56.375Z,51.212025
2023-01-19T04:46:55.353Z,51.211830
2023-01-19T04:47:55.350Z,51.211975
2023-01-19T04:48:55.333Z,51.211796
2023-01-19T04:49:55.339Z,51.212074
2023-01-19T04:50:55.344Z,51.212234
2023-01-19T04:51:55.310Z,51.212040
2023-01-19T04:52:55.320Z,51.212208
2023-01-19T04:53:55.350Z,51.212173
2023-01-19T04:54:55.300Z,51.212044
2023-01-19T04:55:55.302Z,51.211941
2023-01-19T04:56:55.295Z,51.212067
2023-01-19T04:57:55.304Z,51.211990
2023-01-19T04:58:55.294Z,51.212017
2023-01-19T04:59:55.296Z,51.212097
2023-01-19T05:00:55.319Z,51.212307
2023-01-19T05:01:55.278Z,51.212223
2023-01-19T05:02:55.278Z,51.212147
2023-01-19T05:03:55.297Z,51.211842
2023-01-19T05:04:55.248Z,51.211937
2023-01-19T05:05:55.234Z,51.212261
2023-01-19T05:06:55.239Z,51.212257
2023-01-19T05:07:55.229Z,51.212101
2023-01-19T05:08:55.224Z,51.212044
2023-01-19T05:09:55.240Z,51.211945
2023-01-19T05:10:55.222Z,51.211880
2023-01-19T05:11:55.205Z,51.212139
2023-01-19T05:12:55.203Z,51.212158
2023-01-19T05:13:55.211Z,51.212055
2023-01-19T05:14:55.187Z,51.212025
2023-01-19T05:15:55.284Z,51.211937
2023-01-19T05:16:55.212Z,51.212002
2023-01-19T05:17:55.160Z,51.211815
2023-01-19T05:18:55.186Z,51.211922
2023-01-19T05:19:55.144Z,51.212051
2023-01-19T05:20:55.144Z,51.212086
2023-01-19T05:21:55.176Z,51.212135
2023-01-19T05:22:55.134Z,51.212193
2023-01-19T05:23:55.132Z,51.212170
2023-01-19T05:24:55.214Z,51.212162
2023-01-19T05:25:56.119Z,51.212135
2023-01-19T05:26:55.130Z,51.212254
2023-01-19T05:27:55.121Z,51.212349
2023-01-19T05:28:55.098Z,51.212303
2023-01-19T05:29:55.095Z,51.212128
2023-01-19T05:30:55.112Z,51.212196
2023-01-19T05:31:55.121Z,51.212242
2023-01-19T05:32:55.062Z,51.212269
2023-01-19T05:33:55.070Z,51.212170
2023-01-19T05:34:55.079Z,51.212280
2023-01-19T05:35:55.094Z,51.212029
2023-01-19T05:36:55.062Z,51.211987
2023-01-19T05:37:55.439Z,51.212032
2023-01-19T05:38:55.035Z,51.211948
2023-01-19T05:39:55.082Z,51.212383
2023-01-19T05:40:55.050Z,51.212467
2023-01-19T05:41:55.032Z,51.212322
2023-01-19T05:42:54.999Z,51.212326
2023-01-19T05:43:55.009Z,51.212017
2023-01-19T05:44:55.005Z,51.212414
2023-01-19T05:45:54.999Z,51.212166
2023-01-19T05:46:55.036Z,51.212074
2023-01-19T05:47:54.971Z,51.212090
2023-01-19T05:48:54.966Z,51.212112
2023-01-19T05:49:54.968Z,51.212055
2023-01-19T05:50:54.997Z,51.211872
2023-01-19T05:51:54.973Z,51.211819
2023-01-19T05:52:54.950Z,51.211807
2023-01-19T05:53:54.957Z,51.211784
2023-01-19T05:54:54.923Z,51.211941
2023-01-19T05:55:54.976Z,51.211872
2023-01-19T05:56:54.913Z,51.211880
2023-01-19T05:57:54.910Z,51.211960
2023-01-19T05:58:54.941Z,51.212032
2023-01-19T05:59:55.018Z,51.211964
2023-01-19T06:00:54.910Z,51.212078
2023-01-19T06:01:55.517Z,51.212055
2023-01-19T06:02:54.915Z,51.212147
2023-01-19T06:03:54.939Z,51.212189
2023-01-19T06:04:54.859Z,51.212097
2023-01-19T06:05:54.854Z,51.212135
2023-01-19T06:06:54.877Z,51.212170
2023-01-19T06:07:54.847Z,51.212307
2023-01-19T06:08:54.865Z,51.212296
2023-01-19T06:09:54.852Z,51.212196
2023-01-19T06:10:54.827Z,51.212101
2023-01-19T06:11:54.851Z,51.212074
2023-01-19T06:12:54.829Z,51.212025
2023-01-19T06:13:54.800Z,51.212090
2023-01-19T06:14:54.803Z,51.211967
2023-01-19T06:15:54.832Z,51.212074
2023-01-19T06:16:54.787Z,51.212151
2023-01-19T06:17:54.817Z,51.212128
2023-01-19T06:18:54.787Z,51.212154
2023-01-19T06:19:54.780Z,51.212185
2023-01-19T06:20:54.772Z,51.212139
2023-01-19T06:21:54.790Z,51.212067
2023-01-19T06:22:54.766Z,51.212048
2023-01-19T06:23:54.795Z,51.212128
2023-01-19T06:24:54.743Z,51.212055
2023-01-19T06:25:54.952Z,51.212112
2023-01-19T06:26:54.731Z,51.212032
2023-01-19T06:27:54.765Z,51.212185
2023-01-19T06:28:54.760Z,51.212261
2023-01-19T06:29:54.755Z,51.212128
2023-01-19T06:30:54.777Z,51.212185
2023-01-19T06:31:54.790Z,51.212120
2023-01-19T06:32:54.719Z,51.212181
2023-01-19T06:33:54.729Z,51.212223
2023-01-19T06:34:54.697Z,51.212124
2023-01-19T06:35:54.669Z,51.212101
2023-01-19T06:36:54.684Z,51.212097
2023-01-19T06:37:54.758Z,51.211861
2023-01-19T06:38:54.664Z,51.212055
2023-01-19T06:39:54.654Z,51.211933
2023-01-19T06:40:54.654Z,51.211918
2023-01-19T06:41:55.509Z,51.212040
2023-01-19T06:42:54.632Z,51.212067
2023-01-19T06:43:54.645Z,51.212032
2023-01-19T06:44:54.636Z,51.211998
2023-01-19T06:45:54.740Z,51.212109
2023-01-19T06:47:14.631Z,51.212143
2023-01-19T06:47:55.636Z,51.211964
2023-01-19T06:48:54.638Z,51.212032
2023-01-19T06:49:54.614Z,51.212032
2023-01-19T06:50:54.608Z,51.212063
2023-01-19T06:51:54.613Z,51.212036
2023-01-19T06:52:54.580Z,51.212078
2023-01-19T06:53:54.571Z,51.212036
2023-01-19T06:54:54.580Z,51.212017
2023-01-19T06:55:54.573Z,51.211979
2023-01-19T06:56:54.564Z,51.212055
2023-01-19T06:57:54.587Z,51.212132
2023-01-19T06:58:54.551Z,51.212139
2023-01-19T06:59:54.539Z,51.212139
2023-01-19T07:00:54.630Z,51.212177
2023-01-19T07:01:54.632Z,51.212257
2023-01-19T07:02:54.567Z,51.212200
2023-01-19T07:03:54.518Z,51.212170
2023-01-19T07:04:54.528Z,51.212204
2023-01-19T07:05:54.504Z,51.212139
2023-01-19T07:06:54.504Z,51.212219
2023-01-19T07:07:55.542Z,51.212162
2023-01-19T07:08:54.483Z,51.212090
2023-01-19T07:09:54.467Z,51.212132
2023-01-19T07:11:25.748Z,51.212086
2023-01-19T07:11:55.559Z,51.212120
2023-01-19T07:12:54.470Z,51.211971
2023-01-19T07:13:54.508Z,51.211998
2023-01-19T07:14:54.460Z,51.212051
2023-01-19T07:15:55.541Z,51.212082
2023-01-19T07:16:54.477Z,51.212074
2023-01-19T07:17:54.501Z,51.212154
2023-01-19T07:18:54.430Z,51.212181
2023-01-19T07:19:54.418Z,51.212051
2023-01-19T07:20:54.433Z,51.212170
2023-01-19T07:21:54.398Z,51.212135
2023-01-19T07:22:54.980Z,51.212166
2023-01-19T07:23:54.438Z,51.212166
2023-01-19T07:24:54.408Z,51.212162
2023-01-19T07:25:54.397Z,51.212120
2023-01-19T07:26:54.376Z,51.212112
2023-01-19T07:27:54.364Z,51.212044
2023-01-19T07:28:54.364Z,51.212002
2023-01-19T07:29:54.406Z,51.212078
2023-01-19T07:30:54.419Z,51.212170
2023-01-19T07:31:54.395Z,51.211983
2023-01-19T07:32:54.327Z,51.212109
2023-01-19T07:33:54.349Z,51.212090
2023-01-19T07:34:54.325Z,51.212078
2023-01-19T07:35:54.316Z,51.212097
2023-01-19T07:36:54.320Z,51.212116
2023-01-19T07:37:54.308Z,51.212154
2023-01-19T07:38:54.287Z,51.212124
2023-01-19T07:39:54.334Z,51.212173
2023-01-19T07:40:54.291Z,51.212101
2023-01-19T07:41:54.748Z,51.212120
2023-01-19T07:42:54.275Z,51.211994
2023-01-19T07:43:54.261Z,51.212143
2023-01-19T07:44:54.337Z,51.212120
2023-01-19T07:45:54.292Z,51.212147
2023-01-19T07:46:54.272Z,51.212082
2023-01-19T07:47:54.244Z,51.212078
2023-01-19T07:48:54.260Z,51.212025
2023-01-19T07:49:54.224Z,51.212059
2023-01-19T07:50:54.269Z,51.212246
2023-01-19T07:51:54.232Z,51.212112
2023-01-19T07:52:54.209Z,51.212109
2023-01-19T07:53:54.235Z,51.211990
2023-01-19T07:54:54.222Z,51.212070
2023-01-19T07:55:54.231Z,51.212044
2023-01-19T07:56:54.195Z,51.212048
2023-01-19T07:57:54.198Z,51.212078
2023-01-19T07:58:54.186Z,51.212086
2023-01-19T07:59:54.190Z,51.212173
2023-01-19T08:00:54.322Z,51.212093
2023-01-19T08:01:54.464Z,51.212208
2023-01-19T08:02:54.157Z,51.212093
2023-01-19T08:03:54.195Z,51.212013
2023-01-19T08:04:54.178Z,51.212070
2023-01-19T08:05:54.139Z,51.212009
2023-01-19T08:06:54.189Z,51.212032
2023-01-19T08:07:54.282Z,51.212162
2023-01-19T08:08:55.124Z,51.211990
2023-01-19T08:09:54.141Z,51.212082
2023-01-19T08:10:54.094Z,51.212086
2023-01-19T08:11:54.136Z,51.211975
2023-01-19T08:12:54.115Z,51.212029
2023-01-19T08:13:54.097Z,51.212086
2023-01-19T08:14:54.080Z,51.212048
2023-01-19T08:15:54.129Z,51.211910
2023-01-19T08:16:54.074Z,51.211967
2023-01-19T08:17:54.099Z,51.212025
2023-01-19T08:18:54.093Z,51.211983
2023-01-19T08:19:54.045Z,51.211979
2023-01-19T08:20:54.039Z,51.211967
2023-01-19T08:21:54.054Z,51.212116
2023-01-19T08:22:54.037Z,51.211895
2023-01-19T08:23:54.074Z,51.211926
2023-01-19T08:24:54.052Z,51.211880
2023-01-19T08:25:54.007Z,51.211849
2023-01-19T08:26:54.013Z,51.211967
2023-01-19T08:27:54.032Z,51.211975
2023-01-19T08:28:53.999Z,51.211819
2023-01-19T08:29:53.998Z,51.211910
2023-01-19T08:30:54.302Z,51.211994
2023-01-19T08:31:54.014Z,51.211937
2023-01-19T08:32:54.984Z,51.211964
2023-01-19T08:33:54.034Z,51.212090
2023-01-19T08:34:53.940Z,51.212101
2023-01-19T08:35:53.958Z,51.212006
2023-01-19T08:36:53.953Z,51.212002
2023-01-19T08:37:53.933Z,51.211872
2023-01-19T08:38:53.975Z,51.211849
2023-01-19T08:39:53.972Z,51.211926
2023-01-19T08:40:53.908Z,51.211998
2023-01-19T08:41:53.910Z,51.212055
2023-01-19T08:42:53.911Z,51.211983
2023-01-19T08:43:53.921Z,51.211918
2023-01-19T08:44:58.122Z,51.211784
2023-01-19T08:45:54.897Z,51.211720
2023-01-19T08:46:53.940Z,51.211555
2023-01-19T08:47:53.878Z,51.211685
2023-01-19T08:48:53.894Z,51.211941
2023-01-19T08:49:54.874Z,51.212059
2023-01-19T08:50:53.866Z,51.212063
2023-01-19T08:51:53.872Z,51.211987
2023-01-19T08:52:53.846Z,51.211864
2023-01-19T08:53:53.849Z,51.211842
2023-01-19T08:54:53.868Z,51.211819
2023-01-19T08:55:53.833Z,51.211929
2023-01-19T08:56:53.838Z,51.211807
2023-01-19T08:57:53.818Z,51.211887
2023-01-19T08:59:08.087Z,51.211525
2023-01-19T08:59:55.830Z,51.211975
2023-01-19T09:00:53.845Z,51.212223
2023-01-19T09:01:53.951Z,51.212063
2023-01-19T09:02:53.845Z,51.211605
2023-01-19T09:03:53.781Z,51.211681
2023-01-19T09:04:53.774Z,51.211739
2023-01-19T09:05:54.128Z,51.211689
2023-01-19T09:06:53.770Z,51.211758
2023-01-19T09:07:53.750Z,51.211594
2023-01-19T09:08:53.749Z,51.212105
2023-01-19T09:09:53.765Z,51.212132
2023-01-19T09:10:53.752Z,51.212051
2023-01-19T09:11:53.739Z,51.212082
2023-01-19T09:12:53.735Z,51.212101
2023-01-19T09:13:53.730Z,51.211945
2023-01-19T09:14:53.716Z,51.212059
2023-01-19T09:15:53.728Z,51.212051
2023-01-19T09:16:53.720Z,51.212074
2023-01-19T09:17:53.696Z,51.212154
2023-01-19T09:18:53.713Z,51.212109
2023-01-19T09:19:53.679Z,51.212135
2023-01-19T09:20:53.680Z,51.212048
2023-01-19T09:21:53.704Z,51.211994
2023-01-19T09:22:53.663Z,51.211884
2023-01-19T09:23:53.671Z,51.212051
2023-01-19T09:24:53.663Z,51.212154
2023-01-19T09:25:53.647Z,51.212135
2023-01-19T09:26:53.656Z,51.212093
2023-01-19T09:27:53.643Z,51.212067
2023-01-19T09:28:53.633Z,51.212025
2023-01-19T09:29:53.624Z,51.212086
2023-01-19T09:30:53.891Z,51.212025
2023-01-19T09:31:53.677Z,51.212074
2023-01-19T09:32:53.605Z,51.212105
2023-01-19T09:33:53.610Z,51.212051
2023-01-19T09:34:53.601Z,51.211887
2023-01-19T09:35:53.590Z,51.211853
2023-01-19T09:36:53.609Z,51.211838
2023-01-19T09:37:53.574Z,51.212185
2023-01-19T09:38:53.562Z,51.212173
2023-01-19T09:39:53.661Z,51.212200
2023-01-19T09:40:53.588Z,51.212177
2023-01-19T09:41:53.550Z,51.212120
2023-01-19T09:42:53.557Z,51.212082
2023-01-19T09:43:53.555Z,51.212067
2023-01-19T09:44:53.531Z,51.212105
2023-01-19T09:45:53.537Z,51.212101
2023-01-19T09:46:53.536Z,51.212128
2023-01-19T09:47:53.536Z,51.212135
2023-01-19T09:48:53.552Z,51.212158
2023-01-19T09:49:53.518Z,51.212055
2023-01-19T09:50:53.495Z,51.212078
2023-01-19T09:51:54.485Z,51.212185
2023-01-19T09:52:53.503Z,51.212101
2023-01-19T09:53:53.587Z,51.212128
2023-01-19T09:54:53.476Z,51.212162
2023-01-19T09:55:53.489Z,51.212231
2023-01-19T09:56:53.474Z,51.212189
2023-01-19T09:57:53.505Z,51.212185
2023-01-19T09:58:53.603Z,51.212170
2023-01-19T09:59:53.440Z,51.212109
2023-01-19T10:00:53.629Z,51.212185
2023-01-19T10:01:53.487Z,51.212105
2023-01-19T10:02:53.476Z,51.212177
2023-01-19T10:03:53.485Z,51.212147
2023-01-19T10:04:53.425Z,51.212090
2023-01-19T10:05:53.418Z,51.212044
2023-01-19T10:06:53.406Z,51.212097
2023-01-19T10:07:53.475Z,51.212124
2023-01-19T10:08:54.413Z,51.212147
2023-01-19T10:09:53.380Z,51.212284
2023-01-19T10:10:53.373Z,51.212151
2023-01-19T10:11:53.697Z,51.212078
2023-01-19T10:12:53.359Z,51.212143
2023-01-19T10:13:53.353Z,51.212036
2023-01-19T10:14:53.363Z,51.212006
2023-01-19T10:15:53.394Z,51.212070
2023-01-19T10:16:53.331Z,51.211948
2023-01-19T10:17:53.365Z,51.212067
2023-01-19T10:18:53.344Z,51.211926
2023-01-19T10:19:53.317Z,51.211784
2023-01-19T10:20:53.313Z,51.211861
2023-01-19T10:21:53.312Z,51.211990
2023-01-19T10:22:53.368Z,51.212002
2023-01-19T10:23:53.300Z,51.212093
2023-01-19T10:24:53.329Z,51.212090
2023-01-19T10:25:53.455Z,51.212387
2023-01-19T10:26:53.427Z,51.212063
2023-01-19T10:27:53.290Z,51.212029
2023-01-19T10:28:53.300Z,51.212261
2023-01-19T10:29:53.266Z,51.211960
2023-01-19T10:30:53.300Z,51.212147
2023-01-19T10:31:53.337Z,51.212189
2023-01-19T10:32:53.256Z,51.212112
2023-01-19T10:33:53.235Z,51.212181
2023-01-19T10:34:53.307Z,51.212261
2023-01-19T10:35:54.228Z,51.212246
2023-01-19T10:36:53.244Z,51.212181
2023-01-19T10:37:53.215Z,51.212372
2023-01-19T10:38:53.211Z,51.212231
2023-01-19T10:39:53.238Z,51.212513
2023-01-19T10:40:53.195Z,51.212296
2023-01-19T10:41:53.348Z,51.211983
2023-01-19T10:42:53.188Z,51.212326
2023-01-19T10:43:53.194Z,51.212273
2023-01-19T10:44:53.254Z,51.212105
2023-01-19T10:45:53.226Z,51.211887
2023-01-19T10:46:53.165Z,51.212074
2023-01-19T10:47:53.241Z,51.212067
2023-01-19T10:48:53.142Z,51.211857
2023-01-19T10:49:53.182Z,51.212132
2023-01-19T10:50:53.136Z,51.212101
2023-01-19T10:51:53.150Z,51.212154
2023-01-19T10:52:53.153Z,51.212212
2023-01-19T10:53:53.111Z,51.212059
2023-01-19T10:54:53.127Z,51.212021
2023-01-19T10:55:53.166Z,51.212101
2023-01-19T10:56:53.113Z,51.211906
2023-01-19T10:57:53.197Z,51.212013
2023-01-19T10:58:53.147Z,51.212025
2023-01-19T10:59:53.188Z,51.211868
2023-01-19T11:00:53.207Z,51.212090
2023-01-19T11:01:53.267Z,51.212212
2023-01-19T11:02:53.143Z,51.212017
2023-01-19T11:03:53.149Z,51.212009
2023-01-19T11:04:53.281Z,51.212109
2023-01-19T11:05:53.058Z,51.212025
2023-01-19T11:06:53.102Z,51.211929
2023-01-19T11:07:53.124Z,51.212090
2023-01-19T11:08:53.092Z,51.211967
2023-01-19T11:09:53.010Z,51.211971
2023-01-19T11:10:53.023Z,51.211956
2023-01-19T11:11:53.030Z,51.211887
2023-01-19T11:12:52.994Z,51.211914
2023-01-19T11:13:53.000Z,51.211967
2023-01-19T11:14:53.016Z,51.212059
2023-01-19T11:15:52.995Z,51.212067
2023-01-19T11:16:52.981Z,51.212044
2023-01-19T11:17:52.958Z,51.211895
2023-01-19T11:18:52.981Z,51.211914
2023-01-19T11:19:52.974Z,51.212021
2023-01-19T11:20:52.973Z,51.212036
2023-01-19T11:21:52.973Z,51.212181
2023-01-19T11:22:52.947Z,51.212101
2023-01-19T11:23:52.947Z,51.212147
2023-01-19T11:24:52.937Z,51.212078